Time;durP1;ratioP1;P1;durP2;ratioP2;P2;SDS_P1;SDS_P2;PMS_P1;PMS_P2;Temp;Humidity;BMP_temperature;BMP_pressure;BME280_temperature;BME280_humidity;BME280_pressure;Samples;Min_cycle;Max_cycle;Signal;HPM_P1;HPM_P2
2021/07/30 00:02:19;;;;;;;;;6.00;5.25;;;;;21.27;49.60;100697.47;4883201;29;45201;-73
2021/07/30 00:04:44;;;;;;;;;5.00;5.00;;;;;21.27;50.32;100701.06;4883329;28;45341;-73
2021/07/30 00:07:10;;;;;;;;;7.25;6.00;;;;;21.28;50.33;100699.19;4883046;28;46264;-72
2021/07/30 00:09:35;;;;;;;;;6.00;6.00;;;;;21.28;50.45;100701.91;4895497;29;50132;-73
2021/07/30 00:12:00;;;;;;;;;4.25;4.25;;;;;21.26;50.39;100698.47;4883216;28;45252;-73
2021/07/30 00:14:26;;;;;;;;;5.00;4.00;;;;;21.22;49.97;100694.25;4883077;29;45349;-73
2021/07/30 00:16:51;;;;;;;;;5.25;5.25;;;;;21.22;50.00;100696.97;4878777;28;45389;-72
2021/07/30 00:19:16;;;;;;;;;6.00;5.00;;;;;21.20;50.62;100691.66;4884695;29;45418;-72
2021/07/30 00:21:41;;;;;;;;;7.25;7.25;;;;;21.19;50.17;100697.22;4885335;28;45426;-72
2021/07/30 00:24:07;;;;;;;;;5.25;5.25;;;;;21.13;50.18;100692.25;4882706;28;45278;-72
2021/07/30 00:26:32;;;;;;;;;4.75;4.75;;;;;21.15;50.69;100695.72;4882776;29;45486;-73
2021/07/30 00:28:57;;;;;;;;;7.75;7.75;;;;;21.13;50.63;100681.41;4882705;28;45313;-73
2021/07/30 00:31:23;;;;;;;;;5.00;5.00;;;;;21.13;50.34;100684.13;4895231;28;46307;-73
2021/07/30 00:33:48;;;;;;;;;5.25;5.00;;;;;21.10;50.57;100687.94;4882783;28;45668;-73
2021/07/30 00:36:14;;;;;;;;;4.25;4.25;;;;;21.07;50.75;100675.47;4882731;28;45898;-73
2021/07/30 00:38:40;;;;;;;;;5.00;5.00;;;;;21.10;50.75;100682.53;4882816;29;45313;-73
2021/07/30 00:41:05;;;;;;;;;4.25;4.25;;;;;21.08;50.63;100685.34;4886956;28;45358;-72
2021/07/30 00:43:31;;;;;;;;;5.00;5.00;;;;;21.09;50.76;100676.22;4891358;28;45363;-72
2021/07/30 00:45:58;;;;;;;;;4.50;4.50;;;;;21.07;50.75;100670.03;4911910;28;45351;-73
2021/07/30 00:48:25;;;;;;;;;6.00;5.00;;;;;21.03;50.97;100668.56;4882759;29;45302;-72
2021/07/30 00:50:51;;;;;;;;;6.00;4.75;;;;;21.03;50.80;100676.69;4882764;29;45470;-72
2021/07/30 00:53:17;;;;;;;;;5.50;5.50;;;;;21.00;51.22;100671.50;4882807;28;45494;-72
2021/07/30 00:55:44;;;;;;;;;6.50;4.25;;;;;20.99;50.68;100679.75;4882501;29;46161;-72
2021/07/30 00:58:10;;;;;;;;;5.00;5.00;;;;;20.96;51.23;100658.28;4882393;29;45418;-72
2021/07/30 01:00:36;;;;;;;;;5.25;5.25;;;;;20.96;51.24;100667.28;4882349;29;45261;-72
2021/07/30 01:03:02;;;;;;;;;4.25;4.25;;;;;20.96;50.66;100669.16;4882377;28;45337;-72
2021/07/30 01:05:29;;;;;;;;;7.50;7.00;;;;;20.92;51.33;100663.09;4882483;29;46965;-72
2021/07/30 01:07:58;;;;;;;;;8.50;6.25;;;;;20.89;51.06;100663.31;4882540;29;45371;-72
2021/07/30 01:10:24;;;;;;;;;7.25;5.00;;;;;20.83;51.14;100652.94;4882300;28;45413;-72
2021/07/30 01:12:49;;;;;;;;;5.00;5.00;;;;;20.77;51.02;100642.59;4881408;28;45568;-72
2021/07/30 01:15:15;;;;;;;;;4.00;4.00;;;;;20.86;51.39;100655.41;4899893;28;46396;-72
2021/07/30 01:17:40;;;;;;;;;5.00;5.00;;;;;20.61;51.39;100613.00;4871509;28;45381;-72
2021/07/30 01:20:08;;;;;;;;;5.50;5.00;;;;;20.66;51.33;100627.97;4880095;28;45376;-72
2021/07/30 01:22:52;;;;;;;;;6.50;5.00;;;;;20.83;51.24;100659.25;4882255;29;45561;-73
2021/07/30 01:25:18;;;;;;;;;6.00;5.25;;;;;20.75;51.44;100644.53;4870416;29;45389;-73
2021/07/30 01:27:45;;;;;;;;;6.00;6.00;;;;;20.60;51.64;100616.69;4882232;29;45367;-73
2021/07/30 01:30:11;;;;;;;;;4.75;4.75;;;;;20.72;51.52;100635.66;4882410;29;45247;-72
2021/07/30 01:32:37;;;;;;;;;5.00;4.75;;;;;20.80;51.43;100650.47;4881997;28;45465;-72
2021/07/30 01:35:03;;;;;;;;;5.50;5.50;;;;;20.55;51.77;100604.38;4882166;28;45384;-72
2021/07/30 01:37:28;;;;;;;;;5.50;5.50;;;;;20.62;51.30;100612.91;4882141;29;45418;-72
2021/07/30 01:39:54;;;;;;;;;9.00;7.00;;;;;20.63;51.87;100613.78;4882112;28;45388;-72
2021/07/30 01:42:19;;;;;;;;;8.25;7.00;;;;;20.61;51.97;100607.59;4882186;29;45520;-72
2021/07/30 01:44:45;;;;;;;;;6.75;6.00;;;;;20.56;51.87;100599.81;4884856;28;45745;-73
2021/07/30 01:47:10;;;;;;;;;7.00;5.25;;;;;20.72;51.81;100632.06;4907385;28;45467;-72
2021/07/30 01:49:36;;;;;;;;;6.75;6.75;;;;;20.58;51.80;100608.72;4882160;29;45385;-72
2021/07/30 01:52:01;;;;;;;;;8.00;7.00;;;;;20.72;52.04;100632.94;4881893;29;45300;-72
2021/07/30 01:54:27;;;;;;;;;5.50;5.25;;;;;20.52;52.07;100607.31;4880234;29;48358;-72
2021/07/30 01:56:52;;;;;;;;;8.00;8.00;;;;;20.58;52.41;100615.94;4880724;29;45468;-72
2021/07/30 01:59:17;;;;;;;;;6.75;6.00;;;;;20.64;52.06;100627.22;4962402;28;45333;-73
2021/07/30 02:01:43;;;;;;;;;7.75;6.75;;;;;20.69;51.94;100641.31;4880578;28;45697;-72
2021/07/30 02:04:09;;;;;;;;;7.00;7.00;;;;;20.52;52.12;100607.31;4881558;29;45850;-72
2021/07/30 02:06:34;;;;;;;;;8.75;7.00;;;;;20.61;52.05;100624.72;4881690;28;45380;-73
2021/07/30 02:09:00;;;;;;;;;6.00;5.00;;;;;20.68;52.25;100627.84;4880676;28;45516;-73
2021/07/30 02:11:25;;;;;;;;;8.25;7.00;;;;;20.68;51.62;100628.75;4880414;29;45604;-73
2021/07/30 02:16:35;;;;;;;;;8.50;7.50;;;;;20.67;51.96;100623.44;4879356;28;45420;-72
2021/07/30 02:19:00;;;;;;;;;8.00;6.75;;;;;20.66;51.99;100621.69;4871209;29;45315;-73
2021/07/30 02:21:26;;;;;;;;;7.50;7.50;;;;;20.63;52.39;100627.34;4879166;28;45531;-73
2021/07/30 02:23:51;;;;;;;;;6.50;5.25;;;;;20.55;52.21;100612.50;4881426;28;46136;-73
2021/07/30 02:26:17;;;;;;;;;6.75;6.25;;;;;20.58;52.01;100619.56;4881441;29;45351;-72
2021/07/30 02:28:42;;;;;;;;;7.25;7.25;;;;;20.59;52.53;100623.13;4881643;28;45422;-72
2021/07/30 02:31:07;;;;;;;;;8.50;7.75;;;;;20.44;52.53;100600.75;4881397;29;45295;-73
2021/07/30 02:33:33;;;;;;;;;7.00;5.75;;;;;20.55;52.65;100614.34;4881159;29;45534;-73
2021/07/30 02:35:58;;;;;;;;;8.00;8.00;;;;;20.45;52.65;100603.34;4881264;29;45437;-73
2021/07/30 02:38:24;;;;;;;;;5.75;5.75;;;;;20.30;52.71;100575.56;4889834;28;45537;-73
2021/07/30 02:40:49;;;;;;;;;7.00;7.00;;;;;20.49;52.81;100614.81;4885321;28;45466;-73
2021/07/30 02:43:14;;;;;;;;;6.50;5.00;;;;;20.29;52.76;100572.97;4881285;29;45476;-72
2021/07/30 02:45:40;;;;;;;;;7.00;7.00;;;;;20.47;52.73;100609.50;4908089;28;45459;-73
2021/07/30 02:48:05;;;;;;;;;6.50;6.00;;;;;20.27;52.85;100562.22;4880013;28;45439;-73
2021/07/30 02:50:31;;;;;;;;;5.50;5.50;;;;;20.33;52.72;100585.28;4881253;28;45305;-72
2021/07/30 02:52:56;;;;;;;;;7.50;5.50;;;;;20.22;52.72;100564.44;4876763;29;47225;-72
2021/07/30 02:55:21;;;;;;;;;6.25;6.25;;;;;20.43;52.77;100610.75;4878649;28;45333;-73
2021/07/30 02:57:47;;;;;;;;;8.00;8.00;;;;;20.12;53.07;100555.28;4881142;29;45294;-72
2021/07/30 03:00:13;;;;;;;;;10.00;7.00;;;;;20.25;53.00;100566.06;4880444;28;45482;-73
2021/07/30 03:02:38;;;;;;;;;7.00;5.00;;;;;20.33;53.00;100588.88;4880880;29;45397;-73
2021/07/30 03:05:04;;;;;;;;;6.00;6.00;;;;;20.38;52.79;100601.19;4893419;28;45340;-73
2021/07/30 03:07:29;;;;;;;;;6.00;5.00;;;;;20.31;52.85;100582.72;4879813;28;45508;-72
2021/07/30 03:09:55;;;;;;;;;5.50;5.50;;;;;20.33;52.68;100586.16;4880989;28;45411;-73
2021/07/30 03:12:20;;;;;;;;;6.00;5.00;;;;;20.20;53.20;100565.50;4881046;29;45383;-73
2021/07/30 03:14:46;;;;;;;;;10.75;7.25;;;;;20.21;53.11;100564.53;4880695;28;45400;-73
2021/07/30 03:17:11;;;;;;;;;8.00;6.25;;;;;20.33;53.07;100579.84;4874097;29;45267;-72
2021/07/30 03:19:36;;;;;;;;;7.25;7.25;;;;;20.17;53.23;100553.06;4873457;28;45378;-72
2021/07/30 03:22:02;;;;;;;;;7.25;6.75;;;;;20.16;52.99;100551.34;4879344;29;47994;-73
2021/07/30 03:24:27;;;;;;;;;7.00;7.00;;;;;20.22;52.91;100567.13;4910922;28;45831;-72
2021/07/30 03:26:53;;;;;;;;;6.00;6.00;;;;;20.26;53.48;100565.91;4879691;29;45398;-72
2021/07/30 03:29:18;;;;;;;;;6.75;5.75;;;;;20.22;53.29;100558.16;4880481;28;45535;-73
2021/07/30 03:31:47;;;;;;;;;6.00;5.75;;;;;20.23;53.60;100558.03;4880564;28;46283;-73
2021/07/30 03:34:16;;;;;;;;;6.00;6.00;;;;;20.12;53.34;100553.41;4883113;28;45415;-73
2021/07/30 03:36:42;;;;;;;;;7.75;6.00;;;;;20.15;53.37;100560.47;4883894;29;45423;-72
2021/07/30 03:39:09;;;;;;;;;7.25;6.50;;;;;20.22;53.10;100569.00;4883247;28;45490;-73
2021/07/30 03:41:37;;;;;;;;;8.25;6.25;;;;;20.09;53.18;100548.22;4883530;29;46362;-73
2021/07/30 03:44:03;;;;;;;;;6.00;6.00;;;;;20.01;53.47;100536.25;4882934;28;45329;-72
2021/07/30 03:46:28;;;;;;;;;8.00;6.00;;;;;20.24;53.18;100569.75;4913439;28;45465;-73
2021/07/30 03:48:54;;;;;;;;;5.50;5.50;;;;;20.03;53.37;100534.28;4883299;28;46028;-73
2021/07/30 03:51:19;;;;;;;;;6.00;6.00;;;;;20.07;53.52;100544.78;4883473;29;46013;-73
2021/07/30 03:53:44;;;;;;;;;7.25;7.25;;;;;20.02;53.45;100540.69;4881854;28;45567;-73
2021/07/30 03:56:17;;;;;;;;;12.00;6.50;;;;;20.13;53.21;100560.56;4879009;29;45571;-73
2021/07/30 03:58:44;;;;;;;;;8.50;6.00;;;;;20.26;53.64;100584.03;4879036;29;45347;-73
2021/07/30 04:01:11;;;;;;;;;7.50;6.75;;;;;20.22;53.37;100564.44;4883220;29;45675;-73
2021/07/30 04:03:37;;;;;;;;;7.00;7.00;;;;;20.05;53.30;100543.19;4882864;29;45429;-72
2021/07/30 04:06:02;;;;;;;;;8.25;6.25;;;;;20.05;53.54;100540.47;4883464;29;45549;-72
2021/07/30 04:08:28;;;;;;;;;5.50;5.50;;;;;20.04;53.40;100541.44;4883025;29;45455;-73
2021/07/30 04:10:54;;;;;;;;;7.25;7.25;;;;;20.22;53.37;100579.84;4883313;28;46250;-73
2021/07/30 04:13:19;;;;;;;;;7.25;7.00;;;;;20.16;53.59;100563.06;4883190;28;45392;-73
2021/07/30 04:15:44;;;;;;;;;6.00;6.00;;;;;20.03;53.56;100548.72;4881772;29;45333;-73
2021/07/30 04:18:10;;;;;;;;;10.00;9.00;;;;;19.97;53.66;100547.31;4881192;28;45986;-73
2021/07/30 04:20:38;;;;;;;;;5.25;5.00;;;;;20.18;53.64;100573.78;4882670;29;45547;-73
2021/07/30 04:23:03;;;;;;;;;9.50;7.75;;;;;20.09;53.41;100572.59;4882806;29;45222;-73
2021/07/30 04:25:29;;;;;;;;;6.75;6.75;;;;;19.91;53.47;100542.38;4883321;28;45451;-73
2021/07/30 04:27:54;;;;;;;;;4.00;4.00;;;;;19.94;53.89;100544.81;4882877;28;45437;-73
2021/07/30 04:30:21;;;;;;;;;5.75;4.50;;;;;19.97;53.38;100546.44;4881337;29;47359;-73
2021/07/30 04:32:46;;;;;;;;;6.00;6.00;;;;;20.12;53.39;100571.53;4882614;29;45403;-73
2021/07/30 04:35:12;;;;;;;;;5.25;5.25;;;;;19.80;53.52;100523.34;4882926;28;45372;-73
2021/07/30 04:37:37;;;;;;;;;8.50;8.25;;;;;19.85;53.61;100533.84;4882696;29;45496;-73
2021/07/30 04:40:03;;;;;;;;;6.50;6.50;;;;;19.88;53.59;100539.88;4881011;28;47752;-73
2021/07/30 04:42:29;;;;;;;;;6.50;6.00;;;;;20.04;53.62;100568.53;4882493;29;45488;-73
2021/07/30 04:44:54;;;;;;;;;8.50;7.25;;;;;19.96;53.71;100561.84;4890173;28;45820;-73
2021/07/30 04:47:19;;;;;;;;;6.50;6.25;;;;;19.90;53.44;100551.47;4914475;28;45617;-73
2021/07/30 04:49:45;;;;;;;;;5.75;5.75;;;;;20.01;53.86;100568.75;4881368;29;46943;-73
2021/07/30 04:52:10;;;;;;;;;5.75;5.00;;;;;19.92;54.06;100554.06;4881314;28;45380;-73
2021/07/30 04:54:35;;;;;;;;;5.75;4.75;;;;;19.98;53.97;100562.59;4882942;29;45487;-73
2021/07/30 04:57:01;;;;;;;;;5.75;4.50;;;;;19.89;53.79;100543.44;4882784;28;45307;-73
2021/07/30 04:59:26;;;;;;;;;4.25;4.25;;;;;19.98;53.85;100565.31;4882193;29;45365;-73
2021/07/30 05:01:52;;;;;;;;;6.50;5.00;;;;;20.03;53.98;100574.91;4881122;28;45391;-73
2021/07/30 05:04:20;;;;;;;;;7.00;7.00;;;;;19.98;54.11;100565.31;4882422;29;45381;-73
2021/07/30 05:06:46;;;;;;;;;6.25;5.00;;;;;20.01;54.19;100569.59;4882558;29;45386;-73
2021/07/30 05:09:11;;;;;;;;;8.50;6.00;;;;;19.87;54.34;100548.13;4882598;29;46202;-73
2021/07/30 05:11:37;;;;;;;;;5.00;4.00;;;;;19.94;53.92;100563.78;4881253;28;45413;-73
2021/07/30 05:14:02;;;;;;;;;4.00;4.00;;;;;19.98;53.83;100573.44;4881020;28;45609;-73
2021/07/30 05:16:27;;;;;;;;;4.75;4.75;;;;;19.90;54.04;100559.59;4881119;28;45372;-73
2021/07/30 05:18:53;;;;;;;;;6.00;5.00;;;;;19.77;53.87;100537.09;4870681;29;45418;-73
2021/07/30 05:21:18;;;;;;;;;5.25;5.25;;;;;19.83;54.34;100561.03;4880785;28;46053;-73
2021/07/30 05:23:44;;;;;;;;;5.25;5.25;;;;;19.77;54.12;100556.06;4882356;29;45515;-73
2021/07/30 05:26:10;;;;;;;;;5.00;5.00;;;;;19.85;54.01;100571.75;4882147;28;45476;-73
2021/07/30 05:28:35;;;;;;;;;5.75;5.75;;;;;19.74;53.88;100553.53;4880767;28;47623;-73
2021/07/30 05:31:02;;;;;;;;;5.00;4.00;;;;;19.69;54.02;100545.75;4882132;28;45423;-73
2021/07/30 05:33:28;;;;;;;;;5.00;4.50;;;;;19.71;54.00;100548.34;4882159;28;45622;-73
2021/07/30 05:35:54;;;;;;;;;5.00;5.00;;;;;19.71;54.02;100557.34;4881761;28;45449;-74
2021/07/30 05:38:20;;;;;;;;;4.75;4.75;;;;;19.85;54.31;100575.31;4882080;29;45250;-73
2021/07/30 05:40:46;;;;;;;;;5.75;5.25;;;;;19.69;54.40;100545.75;4881858;28;45297;-73
2021/07/30 05:43:11;;;;;;;;;4.00;4.00;;;;;19.60;54.32;100533.75;4882107;29;45488;-73
2021/07/30 05:45:37;;;;;;;;;5.25;5.25;;;;;19.65;54.21;100536.13;4910803;28;45414;-73
2021/07/30 05:48:03;;;;;;;;;6.00;6.00;;;;;19.77;54.32;100562.34;4881355;29;45419;-73
2021/07/30 05:50:28;;;;;;;;;3.75;3.75;;;;;19.58;54.50;100526.75;4881836;28;45404;-73
2021/07/30 05:52:54;;;;;;;;;5.75;3.75;;;;;19.74;54.10;100556.25;4880472;28;45432;-73
2021/07/30 05:55:19;;;;;;;;;4.50;4.00;;;;;19.84;54.63;100568.16;4893814;28;45647;-75
2021/07/30 05:57:45;;;;;;;;;4.75;4.75;;;;;19.68;54.71;100538.63;4879588;29;46255;-76
2021/07/30 06:00:10;;;;;;;;;5.00;4.25;;;;;19.69;54.14;100537.63;4880127;28;45708;-78
2021/07/30 06:02:36;;;;;;;;;6.00;4.50;;;;;19.72;54.16;100533.84;4881534;29;45467;-76
2021/07/30 06:05:02;;;;;;;;;5.25;4.50;;;;;19.68;54.47;100530.50;4881402;28;45462;-78
2021/07/30 06:07:27;;;;;;;;;4.50;4.50;;;;;19.63;54.07;100514.59;4893361;28;47127;-80
2021/07/30 06:09:52;;;;;;;;;7.00;5.00;;;;;19.86;54.46;100551.78;4883473;28;45339;-81
2021/07/30 06:12:18;;;;;;;;;5.00;4.00;;;;;19.91;54.39;100558.63;4881520;28;45247;-78
2021/07/30 06:14:46;;;;;;;;;4.25;4.25;;;;;19.76;54.73;100530.84;4896124;28;45408;-77
2021/07/30 06:17:13;;;;;;;;;6.00;6.00;;;;;19.79;54.72;100537.84;4904871;28;48195;-76
2021/07/30 06:19:39;;;;;;;;;4.75;4.75;;;;;19.76;54.65;100528.13;4880111;28;45654;-77
2021/07/30 06:22:04;;;;;;;;;5.00;5.00;;;;;19.93;55.28;100553.94;4881646;28;45409;-78
2021/07/30 06:24:29;;;;;;;;;6.00;5.00;;;;;19.66;55.19;100507.22;4882219;29;45430;-78
2021/07/30 06:26:55;;;;;;;;;5.00;5.00;;;;;19.92;55.09;100546.78;4880898;29;45507;-77
2021/07/30 06:29:20;;;;;;;;;5.25;5.00;;;;;19.88;55.33;100531.75;4881284;28;45472;-77
2021/07/30 06:31:46;;;;;;;;;4.75;3.50;;;;;19.81;55.49;100533.16;4881130;29;45546;-79
2021/07/30 06:34:11;;;;;;;;;4.00;4.00;;;;;19.85;55.37;100533.84;4881109;29;45218;-77
2021/07/30 06:36:36;;;;;;;;;4.75;3.00;;;;;19.75;55.67;100510.13;4883304;28;45334;-77
2021/07/30 06:39:02;;;;;;;;;5.00;4.00;;;;;19.93;55.23;100540.41;4891089;29;45320;-76
2021/07/30 06:41:28;;;;;;;;;4.00;4.00;;;;;19.80;55.41;100501.66;4881120;29;45455;-76
2021/07/30 06:43:54;;;;;;;;;4.25;4.25;;;;;19.87;55.72;100508.34;4867299;28;45362;-78
2021/07/30 06:46:20;;;;;;;;;4.75;4.50;;;;;19.91;55.60;100508.97;4880796;28;46355;-82
2021/07/30 06:48:45;;;;;;;;;4.25;4.25;;;;;19.99;55.71;100522.81;4876730;29;45993;-78
2021/07/30 06:51:14;;;;;;;;;3.00;3.00;;;;;20.10;55.26;100538.28;4874268;29;45527;-75
2021/07/30 06:53:40;;;;;;;;;4.50;4.50;;;;;20.10;55.29;100532.84;4873245;28;45482;-75
2021/07/30 06:56:15;;;;;;;;;5.00;5.00;;;;;20.00;55.51;100516.44;4879949;28;46301;-76
2021/07/30 06:58:41;;;;;;;;;4.25;4.25;;;;;19.89;55.63;100494.69;4879707;28;45391;-76
2021/07/30 07:01:06;;;;;;;;;6.00;4.00;;;;;19.94;55.57;100506.91;4878875;28;45426;-75
2021/07/30 07:03:32;;;;;;;;;4.00;4.00;;;;;20.01;55.84;100514.56;4883662;29;45363;-75
2021/07/30 07:05:59;;;;;;;;;4.25;3.50;;;;;20.16;55.47;100538.66;4895193;28;48299;-76
2021/07/30 07:08:25;;;;;;;;;3.25;3.00;;;;;19.98;55.67;100515.69;4879559;28;45244;-75
2021/07/30 07:10:51;;;;;;;;;6.75;4.25;;;;;20.03;55.90;100520.72;4879434;29;45377;-75
2021/07/30 07:13:16;;;;;;;;;6.75;6.50;;;;;19.97;55.75;100503.09;4878031;28;46146;-76
2021/07/30 07:15:45;;;;;;;;;5.50;5.50;;;;;20.23;56.11;100540.88;4880529;29;48096;-76
2021/07/30 07:18:10;;;;;;;;;7.00;3.00;;;;;20.13;56.45;100527.16;4882131;28;45749;-76
2021/07/30 07:20:36;;;;;;;;;4.00;4.00;;;;;20.23;56.04;100536.34;4882261;29;45491;-76
2021/07/30 07:23:02;;;;;;;;;6.00;5.75;;;;;20.07;56.63;100495.16;4964553;28;45425;-76
2021/07/30 07:25:27;;;;;;;;;5.50;4.50;;;;;20.19;56.51;100510.47;4882713;29;46512;-74
2021/07/30 07:27:59;;;;;;;;;5.25;5.25;;;;;20.38;56.44;100541.56;4883046;28;45555;-74
2021/07/30 07:30:25;;;;;;;;;3.75;3.75;;;;;20.40;56.20;100537.78;4882194;28;45459;-75
2021/07/30 07:32:50;;;;;;;;;3.75;3.50;;;;;20.23;56.46;100500.25;4880718;28;45452;-72
2021/07/30 07:35:16;;;;;;;;;6.00;4.75;;;;;20.46;56.33;100539.13;4882387;28;45721;-76
2021/07/30 07:37:41;;;;;;;;;5.00;5.00;;;;;20.48;56.46;100539.88;4882265;29;45385;-79
2021/07/30 07:40:08;;;;;;;;;5.00;4.75;;;;;20.43;56.33;100526.69;4881092;28;45377;-82
2021/07/30 07:42:34;;;;;;;;;5.00;5.00;;;;;20.49;56.57;100539.75;4885958;28;45373;-78
2021/07/30 07:45:01;;;;;;;;;2.75;2.75;;;;;20.44;56.93;100525.69;4886594;29;45348;-77
2021/07/30 07:47:29;;;;;;;;;4.00;4.00;;;;;20.58;56.94;100542.75;4887165;29;45581;-78
2021/07/30 07:49:55;;;;;;;;;4.25;4.25;;;;;20.35;56.66;100486.63;4913317;28;45463;-77
2021/07/30 07:52:20;;;;;;;;;4.25;4.25;;;;;20.65;56.67;100536.75;4882944;29;45690;-78
2021/07/30 07:54:46;;;;;;;;;5.00;5.00;;;;;20.68;56.75;100530.22;4880584;28;47188;-78
2021/07/30 07:57:12;;;;;;;;;4.75;4.00;;;;;20.72;57.17;100524.44;4881977;29;45469;-78
2021/07/30 07:59:37;;;;;;;;;3.75;3.75;;;;;20.74;56.98;100529.75;4882458;29;45360;-78
2021/07/30 08:02:06;;;;;;;;;4.00;4.00;;;;;20.77;56.55;100521.38;4880976;29;45509;-74
2021/07/30 08:04:32;;;;;;;;;4.00;4.00;;;;;20.69;56.91;100508.41;4880608;28;48275;-79
2021/07/30 08:07:01;;;;;;;;;6.25;5.00;;;;;20.80;56.83;100518.44;4882490;29;45599;-77
2021/07/30 08:09:27;;;;;;;;;5.00;5.00;;;;;20.77;57.17;100505.09;4881492;28;45458;-77
2021/07/30 08:11:52;;;;;;;;;6.75;5.25;;;;;20.71;57.14;100473.91;4881374;28;45700;-78
2021/07/30 08:14:18;;;;;;;;;5.25;5.25;;;;;20.82;56.95;100494.75;4898252;28;45632;-78
2021/07/30 08:16:45;;;;;;;;;3.00;3.00;;;;;20.85;57.32;100488.22;4965364;28;45346;-78
2021/07/30 08:19:11;;;;;;;;;4.25;4.25;;;;;20.85;56.86;100475.50;4875178;28;45341;-78
2021/07/30 08:21:37;;;;;;;;;5.25;4.00;;;;;21.02;57.16;100497.72;4881384;29;45435;-77
2021/07/30 08:24:03;;;;;;;;;7.00;3.75;;;;;21.04;57.04;100502.03;4881254;28;45868;-79
2021/07/30 08:26:28;;;;;;;;;4.00;4.00;;;;;20.88;56.83;100483.41;4882401;29;45514;-77
2021/07/30 08:28:53;;;;;;;;;4.75;4.75;;;;;20.83;57.43;100463.03;4877714;28;45471;-68
2021/07/30 08:31:24;;;;;;;;;5.00;5.00;;;;;21.09;57.11;100499.81;4881503;28;45539;-68
2021/07/30 08:33:49;;;;;;;;;5.25;4.25;;;;;20.82;58.10;100451.34;4879785;29;48201;-67
2021/07/30 08:36:27;;;;;;;;;;;;;;;;;;;;;
2021/07/30 08:38:55;;;;;;;;;4.50;4.50;;;;;21.09;57.33;100501.66;4881368;28;70604;-70
2021/07/30 08:54:52;;;;;;;;;6.00;4.25;;;;;21.26;57.60;100503.88;4175613;26;45503;-77
2021/07/30 08:57:17;;;;;;;;;5.00;4.75;;;;;21.12;57.32;100474.28;5000622;28;45538;-78
2021/07/30 08:59:43;;;;;;;;;4.25;4.25;;;;;20.93;57.59;100434.19;4996058;28;45522;-77
2021/07/30 09:02:09;;;;;;;;;4.00;4.00;;;;;21.01;57.67;100439.00;4991227;28;45499;-78
2021/07/30 09:04:38;;;;;;;;;4.50;4.00;;;;;21.19;57.89;100474.66;4998585;28;46303;-82
2021/07/30 09:07:04;;;;;;;;;4.00;4.00;;;;;21.12;57.46;100438.13;4998118;28;45750;-79
2021/07/30 09:09:33;;;;;;;;;3.00;3.00;;;;;21.03;57.80;100435.19;5000852;28;45307;-79
2021/07/30 09:12:01;;;;;;;;;4.25;4.25;;;;;21.20;58.08;100452.81;5000508;28;45479;-79
2021/07/30 09:14:44;;;;;;;;;3.25;3.25;;;;;21.43;58.14;100483.50;4998114;28;47261;-78
2021/07/30 09:17:10;;;;;;;;;4.50;4.50;;;;;21.52;58.03;100494.59;5000309;28;45499;-78
2021/07/30 09:20:00;;;;;;;;;4.50;3.50;;;;;21.46;57.68;100476.94;5000237;28;45377;-78
2021/07/30 09:22:25;;;;;;;;;5.25;4.25;;;;;21.35;58.35;100458.84;4998670;28;45447;-79
2021/07/30 09:24:57;;;;;;;;;4.00;3.00;;;;;21.49;58.10;100467.72;4998071;28;45524;-79
2021/07/30 09:27:23;;;;;;;;;4.25;4.25;;;;;21.41;58.36;100447.44;4995409;28;45580;-79
2021/07/30 09:29:48;;;;;;;;;4.00;4.00;;;;;21.57;57.87;100478.81;4997617;28;45376;-79
2021/07/30 09:32:16;;;;;;;;;4.50;4.25;;;;;21.49;58.01;100459.59;4998334;28;45438;-78
2021/07/30 09:34:50;;;;;;;;;5.25;4.50;;;;;21.55;58.19;100464.47;4992120;28;46197;-78
2021/07/30 09:37:27;;;;;;;;;3.50;3.50;;;;;21.49;58.31;100454.16;4996862;28;45499;-78
2021/07/30 09:39:53;;;;;;;;;5.25;3.00;;;;;21.61;58.35;100469.41;4999494;28;45439;-78
2021/07/30 09:42:20;;;;;;;;;2.00;2.00;;;;;21.81;58.37;100501.19;4999202;28;45529;-78
2021/07/30 09:44:48;;;;;;;;;3.50;3.50;;;;;21.85;57.85;100490.94;4998730;28;45573;-79
2021/07/30 09:47:16;;;;;;;;;4.75;3.75;;;;;21.67;58.55;100457.16;4997609;28;45398;-82
2021/07/30 09:49:46;;;;;;;;;4.50;3.50;;;;;21.51;58.51;100425.00;4997916;28;45437;-84
2021/07/30 09:52:16;;;;;;;;;3.25;3.25;;;;;21.84;58.17;100487.38;4999231;28;45372;-83
2021/07/30 09:54:48;;;;;;;;;0.00;0.00;;;;;21.92;58.26;100488.56;4997639;28;46398;-79
2021/07/30 09:57:16;;;;;;;;;5.00;4.00;;;;;21.83;58.37;100480.22;4999088;28;45318;-82
2021/07/30 09:59:42;;;;;;;;;5.50;5.00;;;;;21.99;57.74;100495.22;4997225;28;45497;-80
2021/07/30 10:02:12;;;;;;;;;6.00;4.00;;;;;21.69;57.93;100442.47;4999211;28;45359;-78
2021/07/30 10:04:42;;;;;;;;;2.75;2.00;;;;;21.82;57.75;100454.03;4997956;28;45503;-81
2021/07/30 10:07:15;;;;;;;;;5.00;4.00;;;;;21.74;57.85;100442.09;4983589;28;45542;-82
2021/07/30 10:10:08;;;;;;;;;3.25;3.00;;;;;21.91;57.82;100460.53;4998739;28;45430;-84
2021/07/30 10:12:38;;;;;;;;;5.00;3.50;;;;;21.86;58.28;100461.94;4997741;28;45364;-83
2021/07/30 10:15:08;;;;;;;;;4.25;4.00;;;;;21.67;57.54;100424.56;5013651;28;46675;-83
2021/07/30 10:17:43;;;;;;;;;3.50;3.50;;;;;21.79;57.23;100435.28;4999148;28;45567;-83
2021/07/30 10:20:11;;;;;;;;;3.25;3.00;;;;;21.79;57.17;100426.28;4999572;28;45450;-82
2021/07/30 10:22:45;;;;;;;;;2.00;2.00;;;;;21.94;56.86;100443.13;4994875;28;45985;-82
2021/07/30 10:25:17;;;;;;;;;3.25;3.00;;;;;21.92;56.31;100415.19;4992117;28;45768;-78
2021/07/30 10:27:44;;;;;;;;;2.25;2.25;;;;;21.97;56.77;100424.69;4999201;28;45315;-85
2021/07/30 10:30:15;;;;;;;;;2.75;2.00;;;;;22.31;57.26;100475.34;4998978;28;45462;-85
2021/07/30 10:32:50;;;;;;;;;5.00;3.00;;;;;22.37;57.00;100461.22;5001764;28;45347;-84
2021/07/30 10:35:42;;;;;;;;;3.00;2.00;;;;;22.44;56.57;100467.00;4999233;28;46260;-85
2021/07/30 10:38:15;;;;;;;;;2.75;2.75;;;;;22.50;55.86;100477.31;5009426;28;45275;-77
2021/07/30 10:40:42;;;;;;;;;2.00;2.00;;;;;22.32;55.89;100430.81;4998675;28;45627;-84
2021/07/30 10:43:13;;;;;;;;;2.25;2.25;;;;;22.55;55.51;100475.94;4998994;28;45432;-83
2021/07/30 10:45:42;;;;;;;;;3.00;3.00;;;;;22.56;55.58;100474.06;4996577;28;48114;-85
2021/07/30 10:48:11;;;;;;;;;2.75;2.75;;;;;22.57;54.81;100462.22;4998159;28;45832;-82
2021/07/30 10:50:56;;;;;;;;;2.00;2.00;;;;;22.46;55.08;100448.69;4999209;28;45458;-82
2021/07/30 10:53:32;;;;;;;;;3.75;2.75;;;;;22.58;54.63;100461.19;4999253;28;45464;-77
2021/07/30 10:55:58;;;;;;;;;3.75;3.00;;;;;22.52;55.14;100454.44;4992079;28;45541;-77
2021/07/30 10:58:45;;;;;;;;;3.00;2.25;;;;;22.60;54.84;100469.22;4998191;28;46146;-84
2021/07/30 11:01:10;;;;;;;;;4.00;4.00;;;;;22.62;54.85;100464.50;5008157;28;45426;-80
2021/07/30 11:03:50;;;;;;;;;3.00;3.00;;;;;22.64;55.01;100457.94;4998526;28;45925;-84
2021/07/30 11:06:21;;;;;;;;;3.00;2.75;;;;;22.51;54.19;100439.09;4995413;28;45448;-83
2021/07/30 11:09:03;;;;;;;;;2.00;2.00;;;;;22.68;53.89;100462.09;4996803;28;45594;-83
2021/07/30 11:11:44;;;;;;;;;3.00;3.00;;;;;22.71;54.04;100478.16;4996901;28;45568;-84
2021/07/30 11:14:14;;;;;;;;;1.25;1.25;;;;;22.74;52.46;100466.16;4998085;28;45435;-79
2021/07/30 11:16:44;;;;;;;;;2.25;1.00;;;;;22.76;53.14;100464.16;4998628;28;46277;-85
2021/07/30 11:19:12;;;;;;;;;3.50;1.75;;;;;22.74;51.94;100447.97;4991569;28;45537;-82
2021/07/30 11:21:38;;;;;;;;;1.50;1.50;;;;;22.66;51.04;100428.75;4998589;28;45575;-85
2021/07/30 11:24:05;;;;;;;;;1.75;1.50;;;;;22.62;50.04;100419.13;4998572;28;45495;-80
2021/07/30 11:26:32;;;;;;;;;3.00;1.00;;;;;22.89;49.39;100456.63;4998345;28;45498;-80
2021/07/30 11:29:03;;;;;;;;;3.00;2.00;;;;;23.00;48.58;100457.53;4996701;28;45391;-81
2021/07/30 11:31:29;;;;;;;;;1.00;1.00;;;;;22.99;49.23;100445.78;4997280;28;45470;-81
2021/07/30 11:34:11;;;;;;;;;0.00;0.00;;;;;23.16;48.82;100466.09;4997072;28;45565;-77
2021/07/30 11:36:37;;;;;;;;;2.75;1.00;;;;;22.98;47.78;100430.44;4993555;28;46175;-85
2021/07/30 11:39:02;;;;;;;;;0.00;0.00;;;;;22.94;47.95;100418.97;4998754;28;45361;-85
2021/07/30 11:41:27;;;;;;;;;1.00;1.00;;;;;23.07;48.07;100434.22;4996741;28;45553;-85
2021/07/30 11:44:01;;;;;;;;;1.00;1.00;;;;;22.94;46.53;100418.13;5013401;28;45416;-79